Time;durP1;ratioP1;P1;durP2;ratioP2;P2;SDS_P1;SDS_P2;PMS_P1;PMS_P2;Temp;Humidity;BMP_temperature;BMP_pressure;BME280_temperature;BME280_humidity;BME280_pressure;Samples;Min_cycle;Max_cycle;Signal;HPM_P1;HPM_P2
2023/01/01 00:01:11;;;;;;;25.07;16.50;;;11.40;99.90;;;;;;5028272;28;20847;-68
2023/01/01 00:03:39;;;;;;;20.30;18.13;;;11.40;99.90;;;;;;5025478;28;21193;-68
2023/01/01 00:06:07;;;;;;;16.50;12.07;;;11.40;99.90;;;;;;5025275;28;20637;-69
2023/01/01 00:08:35;;;;;;;13.30;11.70;;;11.50;99.90;;;;;;5044413;28;20615;-68
2023/01/01 00:11:02;;;;;;;14.03;10.67;;;11.50;99.90;;;;;;5027768;28;20619;-68
2023/01/01 00:13:29;;;;;;;17.77;10.77;;;11.50;99.90;;;;;;5027716;28;20629;-68
2023/01/01 00:15:56;;;;;;;11.73;9.57;;;11.50;99.90;;;;;;5028176;28;20670;-68
2023/01/01 00:18:22;;;;;;;11.87;10.40;;;11.50;99.90;;;;;;5028655;28;20684;-67
2023/01/01 00:20:51;;;;;;;9.53;7.87;;;11.50;99.90;;;;;;5027592;28;20618;-68
2023/01/01 00:23:17;;;;;;;17.10;9.13;;;11.40;99.90;;;;;;5036288;28;20627;-68
2023/01/01 00:25:44;;;;;;;11.07;9.90;;;11.40;99.90;;;;;;5035497;28;20634;-68
2023/01/01 00:28:11;;;;;;;14.00;8.27;;;11.40;99.90;;;;;;5028145;28;20634;-68
2023/01/01 00:30:40;;;;;;;9.53;7.57;;;11.40;99.90;;;;;;5037862;28;20629;-69
2023/01/01 00:33:07;;;;;;;11.03;9.73;;;11.30;99.90;;;;;;5027144;28;21251;-71
2023/01/01 00:35:34;;;;;;;10.83;7.87;;;11.40;99.90;;;;;;5043718;28;21363;-68
2023/01/01 00:38:02;;;;;;;16.90;8.57;;;11.40;99.90;;;;;;5028268;28;20619;-68
2023/01/01 00:40:29;;;;;;;11.57;8.90;;;11.40;99.90;;;;;;5027868;28;20635;-69
2023/01/01 00:42:56;;;;;;;15.13;9.23;;;11.40;99.90;;;;;;5035200;28;20627;-68
2023/01/01 00:45:23;;;;;;;13.47;6.93;;;11.40;99.90;;;;;;5031067;28;20740;-68
2023/01/01 00:47:50;;;;;;;9.53;7.80;;;11.40;99.90;;;;;;5047370;28;20734;-70
2023/01/01 00:50:18;;;;;;;8.67;6.37;;;11.30;99.90;;;;;;5046592;28;20673;-68
2023/01/01 00:52:44;;;;;;;7.13;6.30;;;11.50;99.90;;;;;;5025179;28;20706;-68
2023/01/01 00:55:13;;;;;;;10.40;6.37;;;11.50;99.90;;;;;;5029091;28;20659;-68
2023/01/01 00:57:39;;;;;;;8.43;7.60;;;11.40;99.90;;;;;;5043090;28;20630;-68
2023/01/01 01:00:08;;;;;;;10.00;8.87;;;11.40;99.90;;;;;;5030053;28;20619;-68
2023/01/01 01:02:35;;;;;;;8.97;7.60;;;11.40;99.90;;;;;;5033987;28;20638;-69
2023/01/01 01:05:03;;;;;;;11.33;6.87;;;11.40;99.90;;;;;;5027549;28;20629;-68
2023/01/01 01:07:35;;;;;;;11.80;7.60;;;11.40;99.90;;;;;;5031639;28;20635;-69
2023/01/01 01:10:02;;;;;;;6.80;6.20;;;11.40;99.90;;;;;;5027214;28;20623;-68
2023/01/01 01:12:30;;;;;;;6.47;5.60;;;11.40;99.90;;;;;;5043406;28;20972;-69
2023/01/01 01:14:57;;;;;;;7.90;5.70;;;11.40;99.90;;;;;;5045843;28;20666;-68
2023/01/01 01:17:23;;;;;;;8.87;6.10;;;11.40;99.90;;;;;;5047640;28;20627;-68
2023/01/01 01:19:50;;;;;;;8.40;6.80;;;11.30;99.90;;;;;;5035994;28;20642;-68
2023/01/01 01:22:17;;;;;;;9.43;7.70;;;11.30;99.90;;;;;;5026254;28;20804;-68
2023/01/01 01:24:44;;;;;;;9.73;6.53;;;11.30;99.90;;;;;;5037436;28;20629;-68
2023/01/01 01:27:10;;;;;;;11.70;7.60;;;11.30;99.90;;;;;;5047358;28;20619;-69
2023/01/01 01:29:38;;;;;;;9.53;6.27;;;11.20;99.90;;;;;;5030455;28;20638;-69
2023/01/01 01:32:06;;;;;;;6.93;6.20;;;11.20;99.90;;;;;;5037181;28;20638;-69
2023/01/01 01:34:32;;;;;;;5.90;4.87;;;11.10;99.90;;;;;;5031422;28;20665;-68
2023/01/01 01:36:59;;;;;;;7.93;6.00;;;11.10;99.90;;;;;;5030315;28;20643;-69
2023/01/01 01:39:26;;;;;;;8.77;6.67;;;11.00;99.90;;;;;;5027912;28;20650;-69
2023/01/01 01:41:53;;;;;;;8.00;6.07;;;11.00;99.90;;;;;;5031661;28;20639;-68
2023/01/01 01:44:54;;;;;;;6.20;5.50;;;10.90;99.90;;;;;;5042812;28;20979;-68
2023/01/01 01:47:27;;;;;;;7.17;5.00;;;11.00;99.90;;;;;;5016651;28;21098;-68
2023/01/01 01:49:57;;;;;;;7.13;5.80;;;10.90;99.90;;;;;;5031697;28;20633;-68
2023/01/01 01:52:25;;;;;;;4.87;4.43;;;10.90;99.90;;;;;;5048508;28;20622;-68
2023/01/01 01:54:53;;;;;;;5.60;4.97;;;10.80;99.90;;;;;;5040560;28;20660;-69
2023/01/01 01:57:19;;;;;;;9.87;5.63;;;10.90;99.90;;;;;;5051183;28;20733;-68
2023/01/01 01:59:50;;;;;;;10.27;5.30;;;10.90;99.90;;;;;;5044183;28;20970;-68
2023/01/01 02:02:27;;;;;;;6.47;5.20;;;10.90;99.90;;;;;;5037717;28;20630;-69
2023/01/01 02:04:55;;;;;;;6.30;4.13;;;10.90;99.90;;;;;;5033417;28;20619;-69
2023/01/01 02:07:23;;;;;;;4.93;4.40;;;10.90;99.90;;;;;;5030607;28;21219;-68
2023/01/01 02:09:51;;;;;;;4.33;4.03;;;10.90;99.90;;;;;;5031135;28;21055;-69
2023/01/01 02:12:20;;;;;;;4.43;3.63;;;10.90;99.90;;;;;;5047380;28;20753;-68
2023/01/01 02:14:48;;;;;;;9.03;4.13;;;10.90;99.90;;;;;;5050657;28;20658;-68
2023/01/01 02:17:24;;;;;;;8.53;4.87;;;11.00;99.90;;;;;;5048722;28;20703;-69
2023/01/01 02:20:10;;;;;;;4.73;4.10;;;11.00;99.90;;;;;;5047578;28;21296;-68
2023/01/01 02:23:02;;;;;;;11.23;5.27;;;11.00;99.90;;;;;;5044522;28;20681;-69
2023/01/01 02:25:44;;;;;;;3.83;3.47;;;11.00;99.90;;;;;;5030558;28;20633;-68
2023/01/01 02:28:21;;;;;;;6.03;3.17;;;11.00;99.90;;;;;;5032298;28;20669;-68
2023/01/01 02:30:52;;;;;;;6.63;5.13;;;11.10;99.90;;;;;;5010491;28;21263;-68
2023/01/01 02:33:25;;;;;;;4.57;4.17;;;11.00;99.90;;;;;;5015994;28;20969;-69
2023/01/01 02:35:57;;;;;;;7.93;4.87;;;11.00;99.90;;;;;;5031403;28;21208;-69
2023/01/01 02:38:31;;;;;;;6.30;3.90;;;11.00;99.90;;;;;;5030596;28;21192;-68
2023/01/01 02:41:02;;;;;;;5.67;5.00;;;11.00;99.90;;;;;;5036836;28;20713;-69
2023/01/01 02:43:31;;;;;;;4.53;4.00;;;10.90;99.90;;;;;;5042296;28;20634;-69
2023/01/01 02:46:06;;;;;;;5.10;3.50;;;11.00;99.90;;;;;;5033568;28;21006;-69
2023/01/01 02:48:37;;;;;;;5.83;5.30;;;11.00;99.90;;;;;;5030939;28;20630;-69
2023/01/01 02:51:14;;;;;;;3.57;3.03;;;11.00;99.90;;;;;;5029932;28;20619;-70
2023/01/01 02:53:50;;;;;;;3.07;2.80;;;11.00;99.90;;;;;;5033853;28;21299;-69
2023/01/01 02:56:27;;;;;;;3.97;3.63;;;11.10;99.90;;;;;;5044034;28;20666;-69
2023/01/01 03:01:58;;;;;;;3.27;2.87;;;11.20;99.90;;;;;;5039472;28;21121;-69
2023/01/01 03:04:36;;;;;;;8.20;3.77;;;11.20;99.90;;;;;;5030974;28;20631;-68
2023/01/01 03:07:11;;;;;;;3.90;2.77;;;11.20;99.90;;;;;;5038697;28;20614;-69
2023/01/01 03:09:43;;;;;;;3.70;2.63;;;11.30;99.90;;;;;;5049942;28;21033;-68
2023/01/01 03:12:21;;;;;;;6.50;3.67;;;11.30;99.90;;;;;;5043899;28;20630;-69
2023/01/01 03:14:56;;;;;;;5.33;3.67;;;11.20;99.90;;;;;;5029351;28;20737;-69
2023/01/01 03:17:33;;;;;;;3.63;3.23;;;11.20;99.90;;;;;;5030004;28;20629;-69
2023/01/01 03:20:07;;;;;;;4.43;4.03;;;11.10;99.90;;;;;;5029842;28;20705;-69
2023/01/01 03:22:38;;;;;;;3.87;3.57;;;11.20;99.90;;;;;;5046103;28;20628;-69
2023/01/01 03:25:09;;;;;;;3.53;2.53;;;11.10;99.90;;;;;;5049387;28;20666;-70
2023/01/01 03:27:41;;;;;;;3.90;2.73;;;11.20;99.90;;;;;;5044025;28;20630;-69
2023/01/01 03:30:12;;;;;;;7.30;4.10;;;11.20;99.90;;;;;;5030823;28;20681;-69
2023/01/01 03:33:02;;;;;;;5.40;3.17;;;11.20;99.90;;;;;;5035464;28;21491;-69
2023/01/01 03:35:38;;;;;;;4.03;3.70;;;11.10;99.90;;;;;;5029989;28;20686;-69
2023/01/01 03:38:13;;;;;;;4.20;3.27;;;11.20;99.90;;;;;;5029553;28;21192;-69
2023/01/01 03:40:44;;;;;;;6.43;4.50;;;11.20;99.90;;;;;;5015383;28;20618;-69
2023/01/01 03:43:19;;;;;;;3.80;3.40;;;11.10;99.90;;;;;;5037839;28;20627;-69
2023/01/01 03:45:51;;;;;;;4.53;3.30;;;11.10;99.90;;;;;;5048150;28;20618;-70
2023/01/01 03:48:20;;;;;;;6.50;4.93;;;11.00;99.90;;;;;;5047306;28;20964;-69
2023/01/01 03:50:58;;;;;;;4.67;3.47;;;11.00;99.90;;;;;;5018143;28;20622;-69
2023/01/01 03:53:38;;;;;;;4.00;3.17;;;11.00;99.90;;;;;;5038341;28;20623;-69
2023/01/01 03:56:13;;;;;;;3.20;2.90;;;11.00;99.90;;;;;;5047657;28;20716;-69
2023/01/01 03:58:48;;;;;;;3.47;2.50;;;10.90;99.90;;;;;;5033635;28;20657;-69
2023/01/01 04:01:22;;;;;;;2.20;1.47;;;10.90;99.90;;;;;;5046431;28;20626;-69
2023/01/01 04:03:52;;;;;;;7.43;3.00;;;10.90;99.90;;;;;;5047844;28;21061;-69
2023/01/01 04:06:20;;;;;;;4.20;3.10;;;10.90;99.90;;;;;;5040722;28;21000;-69
2023/01/01 04:08:50;;;;;;;6.33;3.37;;;10.90;99.90;;;;;;5042203;28;20726;-69
2023/01/01 04:14:07;;;;;;;2.67;2.47;;;10.90;99.90;;;;;;5018453;28;21097;-69
2023/01/01 04:16:33;;;;;;;3.30;3.00;;;10.90;99.90;;;;;;5028731;28;20743;-69
2023/01/01 04:19:01;;;;;;;4.50;4.10;;;10.80;99.90;;;;;;5028866;28;20750;-69
2023/01/01 04:21:28;;;;;;;3.77;3.10;;;10.80;99.90;;;;;;5027507;28;20899;-70
2023/01/01 04:23:55;;;;;;;4.97;3.30;;;10.70;99.90;;;;;;5028690;28;20623;-69
2023/01/01 04:26:22;;;;;;;3.47;3.03;;;10.70;99.90;;;;;;5032599;28;20630;-69
2023/01/01 04:28:49;;;;;;;3.53;2.70;;;10.60;99.90;;;;;;5030007;28;20637;-70
2023/01/01 04:31:15;;;;;;;3.00;2.40;;;10.50;99.90;;;;;;5036774;28;20627;-69
2023/01/01 04:33:42;;;;;;;4.37;3.17;;;10.50;99.90;;;;;;5029399;28;20627;-69
2023/01/01 04:36:11;;;;;;;3.20;2.90;;;10.40;99.90;;;;;;5046760;28;21223;-69
2023/01/01 04:38:38;;;;;;;2.90;2.23;;;10.40;99.90;;;;;;5043086;28;20615;-69
2023/01/01 04:41:05;;;;;;;2.73;1.93;;;10.30;99.90;;;;;;5045258;28;20630;-69
2023/01/01 04:43:32;;;;;;;5.10;2.17;;;10.30;99.90;;;;;;5034987;28;21293;-69
2023/01/01 04:46:00;;;;;;;4.60;2.80;;;10.40;99.90;;;;;;5047311;28;20631;-69
2023/01/01 04:48:28;;;;;;;3.37;2.23;;;10.30;99.90;;;;;;5047390;28;20625;-69
2023/01/01 04:50:56;;;;;;;3.33;2.83;;;10.30;99.90;;;;;;5047666;28;20618;-69
2023/01/01 04:53:25;;;;;;;4.40;2.80;;;10.30;99.90;;;;;;5033078;28;20659;-68
2023/01/01 04:55:51;;;;;;;2.40;2.20;;;10.20;99.90;;;;;;5042009;28;20679;-69
2023/01/01 04:58:18;;;;;;;1.77;1.67;;;10.40;99.90;;;;;;5028915;28;20608;-68
2023/01/01 05:00:49;;;;;;;2.83;1.90;;;10.50;99.90;;;;;;5042001;28;21014;-69
2023/01/01 05:03:16;;;;;;;1.63;1.53;;;10.50;99.90;;;;;;5027336;28;21246;-69
2023/01/01 05:05:43;;;;;;;2.27;2.17;;;10.50;99.90;;;;;;5029538;28;20631;-69
2023/01/01 05:08:10;;;;;;;4.57;2.90;;;10.60;99.90;;;;;;5030143;28;20632;-69
2023/01/01 05:10:38;;;;;;;2.70;2.20;;;10.60;99.90;;;;;;5027985;28;20623;-69
2023/01/01 05:13:07;;;;;;;5.10;2.37;;;10.60;99.90;;;;;;5043863;28;20633;-69
2023/01/01 05:15:36;;;;;;;2.17;2.00;;;10.60;99.90;;;;;;5047129;28;20681;-68
2023/01/01 05:18:03;;;;;;;1.83;1.67;;;10.80;99.90;;;;;;5040123;28;20612;-69
2023/01/01 05:20:30;;;;;;;3.70;2.00;;;10.70;99.90;;;;;;5028515;28;20708;-69
2023/01/01 05:22:56;;;;;;;2.03;1.80;;;10.70;99.90;;;;;;5025967;28;20619;-69
2023/01/01 05:25:23;;;;;;;1.90;1.73;;;10.70;99.90;;;;;;5027572;28;20631;-69
2023/01/01 05:27:51;;;;;;;3.63;2.17;;;10.80;99.90;;;;;;5027417;28;21203;-69
2023/01/01 05:30:18;;;;;;;2.60;1.97;;;10.80;99.90;;;;;;5028465;28;21543;-70
2023/01/01 05:32:45;;;;;;;2.93;2.10;;;10.90;99.90;;;;;;5045147;28;21187;-69
2023/01/01 05:35:12;;;;;;;1.90;1.27;;;10.80;99.90;;;;;;5047413;28;20637;-69
2023/01/01 05:37:38;;;;;;;2.67;2.47;;;10.90;99.90;;;;;;5045299;28;20670;-69
2023/01/01 05:40:06;;;;;;;2.17;1.97;;;10.90;99.90;;;;;;5028827;28;20738;-69
2023/01/01 05:42:34;;;;;;;2.70;2.20;;;10.80;99.90;;;;;;5030359;28;20634;-69
2023/01/01 05:45:03;;;;;;;3.43;1.70;;;10.80;99.90;;;;;;5037581;28;20757;-69
2023/01/01 05:47:30;;;;;;;1.80;1.70;;;10.80;99.90;;;;;;5047539;28;20706;-69
2023/01/01 05:49:57;;;;;;;2.67;2.23;;;10.80;99.90;;;;;;5046765;28;20661;-69
2023/01/01 05:52:24;;;;;;;1.57;1.47;;;10.90;99.90;;;;;;5029950;28;21207;-69
2023/01/01 05:54:50;;;;;;;2.00;1.80;;;10.80;99.90;;;;;;5039701;28;20624;-69
2023/01/01 05:57:17;;;;;;;3.47;2.03;;;10.80;99.90;;;;;;5027827;28;20667;-69
2023/01/01 05:59:44;;;;;;;1.80;1.57;;;10.80;99.90;;;;;;5039135;28;20629;-69
2023/01/01 06:02:12;;;;;;;2.50;2.30;;;10.80;99.90;;;;;;5033629;28;20627;-69
2023/01/01 06:04:39;;;;;;;1.67;1.57;;;10.70;99.90;;;;;;5028621;28;20623;-69
2023/01/01 06:07:06;;;;;;;2.23;1.87;;;10.70;99.90;;;;;;5023849;28;20656;-69
2023/01/01 06:09:33;;;;;;;3.33;1.60;;;10.70;99.90;;;;;;5016150;28;20635;-69
2023/01/01 06:12:00;;;;;;;1.47;1.37;;;10.60;99.90;;;;;;5040214;28;20696;-68
2023/01/01 06:14:26;;;;;;;1.70;1.60;;;10.60;99.90;;;;;;5047010;28;20634;-69
2023/01/01 06:16:53;;;;;;;2.20;2.00;;;10.60;99.90;;;;;;5047388;28;20661;-69
2023/01/01 06:19:21;;;;;;;1.20;1.10;;;10.60;99.90;;;;;;5046666;28;21021;-69
2023/01/01 06:21:48;;;;;;;1.80;1.70;;;10.60;99.90;;;;;;5046102;28;20618;-69
2023/01/01 06:24:15;;;;;;;3.13;1.20;;;10.60;99.90;;;;;;5045987;28;20627;-70
2023/01/01 06:26:42;;;;;;;3.47;2.40;;;10.70;99.90;;;;;;5028068;28;20635;-69
2023/01/01 06:29:09;;;;;;;2.60;1.87;;;10.70;99.90;;;;;;5030545;28;20628;-69
2023/01/01 06:31:36;;;;;;;1.90;1.20;;;10.60;99.90;;;;;;5036867;28;20717;-69
2023/01/01 06:34:03;;;;;;;2.70;1.67;;;10.60;99.90;;;;;;5038500;28;20691;-69
2023/01/01 06:36:31;;;;;;;1.80;1.70;;;10.60;99.90;;;;;;5035642;28;20657;-69
2023/01/01 06:38:58;;;;;;;2.20;1.70;;;10.70;99.90;;;;;;5046015;28;20627;-69
2023/01/01 06:41:27;;;;;;;0.93;0.93;;;10.70;99.90;;;;;;5036205;28;20619;-69
2023/01/01 06:43:54;;;;;;;3.90;1.07;;;10.60;99.90;;;;;;5033612;28;21260;-69
2023/01/01 06:46:23;;;;;;;1.40;1.30;;;10.50;99.90;;;;;;5030672;28;20960;-69
2023/01/01 06:48:53;;;;;;;1.37;1.27;;;10.50;99.90;;;;;;5031594;28;20631;-69
2023/01/01 06:51:21;;;;;;;2.47;2.23;;;10.50;99.90;;;;;;5037050;28;20637;-69
2023/01/01 06:53:50;;;;;;;3.93;1.40;;;10.50;99.90;;;;;;5047940;28;20618;-69
2023/01/01 06:56:17;;;;;;;1.40;1.30;;;10.60;99.90;;;;;;5030667;28;21014;-69
2023/01/01 06:58:44;;;;;;;1.40;1.30;;;10.70;99.90;;;;;;5043836;28;20626;-69
2023/01/01 07:01:14;;;;;;;2.00;1.63;;;10.70;99.90;;;;;;5029605;28;20641;-69
2023/01/01 07:03:41;;;;;;;2.77;1.90;;;10.70;99.90;;;;;;5031343;28;20623;-69
2023/01/01 07:06:09;;;;;;;1.23;1.13;;;10.70;99.90;;;;;;5045223;28;20626;-70
2023/01/01 07:08:36;;;;;;;2.17;1.20;;;10.70;99.90;;;;;;5030420;28;20619;-69
2023/01/01 07:11:04;;;;;;;1.70;1.43;;;10.70;99.90;;;;;;5035376;28;20637;-69
2023/01/01 07:13:31;;;;;;;1.73;1.60;;;10.70;99.90;;;;;;5049625;28;20626;-69
2023/01/01 07:15:58;;;;;;;2.20;1.93;;;10.80;99.90;;;;;;5049016;28;20614;-69
2023/01/01 07:18:25;;;;;;;2.37;2.03;;;10.60;99.90;;;;;;5029620;28;20629;-69
2023/01/01 07:20:54;;;;;;;2.43;1.23;;;10.60;99.90;;;;;;5030630;28;20686;-69
2023/01/01 07:23:20;;;;;;;0.90;0.90;;;10.70;99.90;;;;;;5049999;28;20629;-69
2023/01/01 07:25:50;;;;;;;1.37;1.27;;;10.60;99.90;;;;;;5038164;28;20959;-69
2023/01/01 07:28:18;;;;;;;2.07;1.87;;;10.60;99.90;;;;;;5030728;28;21188;-69
2023/01/01 07:30:45;;;;;;;1.60;1.50;;;10.60;99.90;;;;;;5034819;28;21193;-69
2023/01/01 07:33:13;;;;;;;1.23;1.10;;;10.60;99.90;;;;;;5033419;28;20742;-69
2023/01/01 07:35:40;;;;;;;1.30;1.20;;;10.60;99.90;;;;;;5029855;28;20626;-69
2023/01/01 07:38:08;;;;;;;5.00;2.33;;;10.70;99.90;;;;;;5046807;28;20669;-69
2023/01/01 07:40:34;;;;;;;0.97;0.97;;;10.60;99.90;;;;;;5048893;28;20991;-69
2023/01/01 07:43:01;;;;;;;1.50;1.33;;;10.70;99.90;;;;;;5039583;28;20651;-69
2023/01/01 07:45:29;;;;;;;0.97;0.97;;;10.70;99.90;;;;;;5045218;28;20650;-69
2023/01/01 07:47:58;;;;;;;1.10;1.00;;;10.70;99.90;;;;;;5047549;28;20680;-69
2023/01/01 07:50:27;;;;;;;1.23;0.93;;;10.80;99.90;;;;;;5046034;28;20619;-69
2023/01/01 07:52:54;;;;;;;1.60;1.50;;;10.80;99.90;;;;;;5028809;28;20973;-69
2023/01/01 07:55:21;;;;;;;1.80;1.70;;;10.80;99.90;;;;;;5043664;28;20618;-69
2023/01/01 07:57:48;;;;;;;1.67;1.57;;;10.70;99.90;;;;;;5032180;28;20667;-70
2023/01/01 08:00:18;;;;;;;2.50;1.67;;;10.60;99.90;;;;;;5029275;28;20619;-69
2023/01/01 08:02:46;;;;;;;2.17;2.07;;;10.50;99.90;;;;;;5041882;28;20628;-69
2023/01/01 08:05:13;;;;;;;2.17;1.90;;;10.40;99.90;;;;;;5029013;28;20635;-69
2023/01/01 08:07:40;;;;;;;1.83;1.73;;;10.30;99.90;;;;;;5044506;28;20657;-69
2023/01/01 08:10:08;;;;;;;2.97;2.00;;;10.30;99.90;;;;;;5048771;28;20618;-69
2023/01/01 08:12:35;;;;;;;2.80;2.13;;;10.40;99.90;;;;;;5028193;28;20993;-70
2023/01/01 08:15:01;;;;;;;1.07;1.00;;;10.40;99.90;;;;;;5029071;28;20624;-69
2023/01/01 08:17:28;;;;;;;3.47;1.37;;;10.40;99.90;;;;;;5029035;28;20662;-69
2023/01/01 08:19:56;;;;;;;1.47;1.13;;;10.30;99.90;;;;;;5028980;28;20638;-69
2023/01/01 08:22:23;;;;;;;1.43;1.33;;;10.30;99.90;;;;;;5042256;28;20627;-69
2023/01/01 08:24:50;;;;;;;1.90;1.80;;;10.30;99.90;;;;;;5048631;28;20678;-70
2023/01/01 08:27:17;;;;;;;4.63;2.30;;;10.30;99.90;;;;;;5047972;28;20713;-70
2023/01/01 08:29:44;;;;;;;4.93;1.60;;;10.30;99.90;;;;;;5039120;28;20630;-69
2023/01/01 08:32:11;;;;;;;1.87;1.77;;;10.30;99.90;;;;;;5029079;28;21005;-70
2023/01/01 08:34:38;;;;;;;1.33;1.23;;;10.20;99.90;;;;;;5032157;28;20639;-69
2023/01/01 08:37:06;;;;;;;5.93;1.70;;;10.20;99.90;;;;;;5040623;28;20658;-70
2023/01/01 08:39:33;;;;;;;2.50;1.67;;;10.20;99.90;;;;;;5039978;28;20635;-69
2023/01/01 08:41:59;;;;;;;1.63;1.27;;;10.30;99.90;;;;;;5040522;28;20639;-70
2023/01/01 08:44:26;;;;;;;1.43;1.33;;;10.20;99.90;;;;;;5031422;28;20639;-69
2023/01/01 08:46:53;;;;;;;2.07;1.53;;;10.20;99.90;;;;;;5048190;28;20627;-69
2023/01/01 08:49:20;;;;;;;5.10;1.73;;;10.30;99.90;;;;;;5047704;28;20634;-69
2023/01/01 08:51:47;;;;;;;2.20;1.87;;;10.30;99.90;;;;;;5032958;28;20966;-69
2023/01/01 08:54:15;;;;;;;2.23;2.03;;;10.30;99.90;;;;;;5030964;28;20632;-69
2023/01/01 08:56:41;;;;;;;3.50;1.87;;;10.40;99.90;;;;;;5039728;28;21260;-69
2023/01/01 08:59:08;;;;;;;1.33;1.03;;;10.40;99.90;;;;;;5031095;28;20629;-70
2023/01/01 09:01:35;;;;;;;2.07;1.33;;;10.50;99.90;;;;;;5047445;28;21176;-69
2023/01/01 09:04:02;;;;;;;1.03;0.97;;;10.50;99.90;;;;;;5046189;28;21015;-70
2023/01/01 09:06:29;;;;;;;3.40;1.87;;;10.60;99.90;;;;;;5042363;28;20627;-70
2023/01/01 09:08:55;;;;;;;2.10;1.90;;;10.70;99.90;;;;;;5026472;28;20631;-70
2023/01/01 09:11:25;;;;;;;3.00;1.70;;;10.80;99.90;;;;;;5039530;28;20631;-69
2023/01/01 09:13:53;;;;;;;1.43;1.33;;;10.90;99.90;;;;;;5047609;28;20614;-69
2023/01/01 09:16:20;;;;;;;1.93;1.83;;;11.00;99.90;;;;;;5047866;28;20618;-70
2023/01/01 09:18:46;;;;;;;3.23;1.77;;;11.10;99.90;;;;;;5046385;28;20695;-70
2023/01/01 09:21:13;;;;;;;2.20;1.97;;;11.20;99.90;;;;;;5036029;28;21057;-70
2023/01/01 09:23:41;;;;;;;2.47;2.17;;;11.30;99.90;;;;;;5027643;28;20627;-69
2023/01/01 09:26:09;;;;;;;3.23;1.63;;;11.40;99.90;;;;;;5027278;28;20627;-70
2023/01/01 09:28:37;;;;;;;1.00;0.90;;;11.50;99.60;;;;;;5027559;28;20634;-69
2023/01/01 09:31:05;;;;;;;1.47;1.20;;;11.50;99.50;;;;;;5043866;28;20626;-69
2023/01/01 09:33:32;;;;;;;1.73;1.63;;;11.50;99.60;;;;;;5027739;28;20969;-69
2023/01/01 09:36:13;;;;;;;1.47;1.20;;;11.50;99.40;;;;;;5028101;28;20717;-69
2023/01/01 09:38:39;;;;;;;1.60;1.33;;;11.60;99.40;;;;;;5027640;28;20785;-69
2023/01/01 09:41:16;;;;;;;2.10;1.90;;;11.60;99.40;;;;;;5032050;28;20733;-70
2023/01/01 09:43:55;;;;;;;1.63;1.57;;;11.70;99.10;;;;;;5032057;28;20639;-69
2023/01/01 09:46:24;;;;;;;1.73;1.40;;;11.70;99.10;;;;;;5027142;28;20992;-70
2023/01/01 09:48:55;;;;;;;2.50;1.70;;;11.70;99.30;;;;;;5027616;28;20689;-70
2023/01/01 09:51:24;;;;;;;1.20;1.07;;;11.80;99.00;;;;;;5036878;28;21034;-69
2023/01/01 09:53:55;;;;;;;1.27;1.17;;;11.80;99.10;;;;;;5009638;28;20623;-69
2023/01/01 09:56:26;;;;;;;3.37;1.23;;;11.80;99.20;;;;;;5047145;28;20629;-69
2023/01/01 09:58:57;;;;;;;1.90;1.20;;;11.80;99.20;;;;;;5039002;28;20669;-70
2023/01/01 10:01:37;;;;;;;11.73;2.10;;;11.80;99.40;;;;;;5032028;28;20634;-70
2023/01/01 10:04:21;;;;;;;2.30;1.70;;;11.90;99.20;;;;;;5048096;28;20629;-69
2023/01/01 10:06:57;;;;;;;2.37;2.17;;;12.00;98.70;;;;;;5044322;28;20627;-69
2023/01/01 10:09:33;;;;;;;3.80;1.10;;;12.20;98.40;;;;;;5032817;28;20874;-69
2023/01/01 10:12:05;;;;;;;0.97;0.97;;;12.30;98.40;;;;;;5050813;28;20984;-69
2023/01/01 10:14:37;;;;;;;3.20;2.93;;;12.50;98.00;;;;;;5050725;28;20719;-69
2023/01/01 10:17:12;;;;;;;1.93;1.77;;;12.50;98.30;;;;;;5037103;28;21185;-69
2023/01/01 10:19:43;;;;;;;2.17;1.47;;;12.60;97.70;;;;;;5031759;28;20623;-70
2023/01/01 10:22:15;;;;;;;1.67;1.47;;;12.70;97.50;;;;;;5050494;28;20627;-69
2023/01/01 10:24:46;;;;;;;5.50;1.57;;;12.80;97.70;;;;;;5050807;28;20636;-69
2023/01/01 10:27:29;;;;;;;1.97;1.30;;;12.80;97.70;;;;;;5050762;28;20636;-69
2023/01/01 10:29:57;;;;;;;1.37;1.23;;;12.80;97.60;;;;;;5049092;28;20637;-69
2023/01/01 10:32:29;;;;;;;1.43;1.33;;;12.90;97.30;;;;;;5037755;28;20633;-69
2023/01/01 10:34:57;;;;;;;2.37;1.47;;;12.90;97.60;;;;;;5032129;28;20620;-69
2023/01/01 10:37:25;;;;;;;1.83;1.73;;;12.90;97.30;;;;;;5036604;28;21120;-69
2023/01/01 10:39:52;;;;;;;1.80;1.70;;;13.00;96.70;;;;;;5040888;28;21185;-69
2023/01/01 10:42:19;;;;;;;1.10;1.00;;;13.10;97.00;;;;;;5031027;28;20622;-69
2023/01/01 10:44:46;;;;;;;1.83;1.67;;;13.10;97.40;;;;;;5032152;28;20637;-70
2023/01/01 10:47:25;;;;;;;1.20;1.10;;;13.20;97.20;;;;;;5030478;28;20627;-70
2023/01/01 10:49:59;;;;;;;1.50;1.40;;;13.20;96.90;;;;;;5030846;28;20678;-70
2023/01/01 10:52:30;;;;;;;2.53;1.57;;;13.20;97.10;;;;;;5047277;28;20636;-69
2023/01/01 10:54:58;;;;;;;3.90;2.10;;;13.30;96.70;;;;;;5040415;28;21028;-69
2023/01/01 10:57:32;;;;;;;1.47;1.20;;;13.40;96.40;;;;;;5030082;28;20658;-69
2023/01/01 11:00:22;;;;;;;2.07;1.40;;;13.40;96.50;;;;;;5030490;28;20625;-70
2023/01/01 11:03:13;;;;;;;1.37;1.27;;;13.50;96.20;;;;;;5032362;28;20638;-70
2023/01/01 11:05:40;;;;;;;1.50;1.37;;;13.60;96.20;;;;;;5029974;28;20619;-70
2023/01/01 11:08:18;;;;;;;1.70;1.20;;;13.70;95.90;;;;;;5028970;28;20647;-69
2023/01/01 11:10:51;;;;;;;1.67;1.58;;;13.70;95.90;;;;;;5042724;28;20744;-71
2023/01/01 11:13:20;;;;;;;2.78;1.85;;;13.60;96.30;;;;;;5049391;28;20740;-69
2023/01/01 11:15:47;;;;;;;2.07;1.27;;;13.60;96.30;;;;;;5048529;28;20196;-69
2023/01/01 11:18:20;;;;;;;3.30;1.50;;;13.60;95.90;;;;;;5031934;28;20662;-69
2023/01/01 11:20:51;;;;;;;1.20;1.10;;;13.70;96.20;;;;;;5029978;28;20626;-69
2023/01/01 11:23:30;;;;;;;1.73;1.60;;;13.70;96.20;;;;;;5029818;28;21295;-69
2023/01/01 11:25:59;;;;;;;1.87;1.30;;;13.80;96.00;;;;;;5037685;28;20993;-69
2023/01/01 11:28:27;;;;;;;1.10;1.00;;;14.00;95.50;;;;;;5043786;28;20722;-69
2023/01/01 11:31:05;;;;;;;1.13;1.03;;;14.10;94.90;;;;;;5032623;28;20650;-69
2023/01/01 11:33:36;;;;;;;1.40;0.93;;;14.20;94.70;;;;;;5048511;28;20618;-69
2023/01/01 11:36:05;;;;;;;1.57;1.47;;;14.20;94.70;;;;;;5045019;28;20656;-69
2023/01/01 11:38:32;;;;;;;1.93;1.70;;;14.20;94.80;;;;;;5049246;28;20667;-69
2023/01/01 11:41:04;;;;;;;2.00;1.00;;;14.20;94.60;;;;;;5035384;28;20624;-69
2023/01/01 11:43:37;;;;;;;1.10;1.00;;;14.30;94.50;;;;;;5035815;28;20634;-69
2023/01/01 11:46:08;;;;;;;3.63;3.30;;;14.30;94.60;;;;;;5042692;28;21222;-69
2023/01/01 11:48:41;;;;;;;1.60;1.50;;;14.20;94.60;;;;;;5049203;28;21234;-69
2023/01/01 11:51:11;;;;;;;1.50;1.17;;;14.20;94.50;;;;;;5039850;28;20631;-69
2023/01/01 11:53:40;;;;;;;0.90;0.90;;;14.30;94.50;;;;;;5029139;28;20630;-69
2023/01/01 11:56:13;;;;;;;2.50;1.17;;;14.30;94.00;;;;;;5043771;28;20619;-69
2023/01/01 11:58:49;;;;;;;1.53;1.10;;;14.30;94.30;;;;;;5029111;28;20765;-69
2023/01/01 12:01:22;;;;;;;1.30;1.07;;;14.30;93.90;;;;;;5034735;28;21175;-69
2023/01/01 12:03:55;;;;;;;1.43;1.03;;;14.30;94.30;;;;;;5046479;28;20724;-69
2023/01/01 12:06:26;;;;;;;1.60;1.00;;;14.30;94.20;;;;;;5046261;28;20619;-69
2023/01/01 12:08:59;;;;;;;2.17;1.80;;;14.30;94.20;;;;;;5028841;28;20627;-70
2023/01/01 12:11:32;;;;;;;1.50;1.40;;;14.40;93.60;;;;;;5008865;28;20630;-69
2023/01/01 12:14:13;;;;;;;2.10;1.90;;;14.50;93.70;;;;;;5010055;28;20647;-69
2023/01/01 12:16:48;;;;;;;2.80;2.10;;;14.40;93.80;;;;;;5028763;28;20633;-69
2023/01/01 12:19:22;;;;;;;2.43;1.63;;;14.50;93.70;;;;;;5022455;28;21206;-68
2023/01/01 12:21:51;;;;;;;1.73;1.27;;;14.60;93.20;;;;;;5029342;28;20653;-69
2023/01/01 12:24:18;;;;;;;1.67;1.10;;;14.60;94.10;;;;;;5028637;28;21201;-69
2023/01/01 12:26:56;;;;;;;1.40;1.20;;;14.60;93.60;;;;;;5027831;28;20626;-70
2023/01/01 12:29:41;;;;;;;1.00;0.90;;;14.70;93.70;;;;;;5032261;28;20617;-69
2023/01/01 12:32:15;;;;;;;2.30;1.20;;;14.70;93.30;;;;;;5008462;28;20627;-71
2023/01/01 12:34:50;;;;;;;1.13;0.90;;;14.70;93.50;;;;;;5032511;28;21003;-70
2023/01/01 12:37:24;;;;;;;0.80;0.80;;;14.60;93.40;;;;;;5039494;28;20636;-69
2023/01/01 12:40:29;;;;;;;1.17;1.17;;;14.80;93.10;;;;;;5039595;28;20671;-69
2023/01/01 12:43:02;;;;;;;1.30;1.10;;;14.70;93.20;;;;;;5027758;28;20628;-69
2023/01/01 12:45:48;;;;;;;1.47;1.07;;;14.80;93.40;;;;;;5037070;28;20630;-69
2023/01/01 12:48:33;;;;;;;1.03;0.83;;;14.90;92.60;;;;;;5047554;28;20632;-69
2023/01/01 12:51:12;;;;;;;1.80;1.50;;;15.00;92.30;;;;;;5028304;28;20630;-69
2023/01/01 12:53:46;;;;;;;0.93;0.93;;;15.00;92.30;;;;;;5044763;28;20701;-69
2023/01/01 12:56:16;;;;;;;0.97;0.87;;;14.90;92.50;;;;;;5029594;28;20623;-69
2023/01/01 12:58:47;;;;;;;1.53;1.30;;;14.90;92.70;;;;;;5042038;28;20717;-69
2023/01/01 13:01:21;;;;;;;1.20;1.10;;;14.80;93.00;;;;;;5036621;28;20615;-69
2023/01/01 13:03:51;;;;;;;1.23;1.10;;;14.80;92.80;;;;;;5047667;28;20718;-69
2023/01/01 13:06:25;;;;;;;1.57;1.47;;;14.80;93.80;;;;;;5041641;28;20623;-70